Погода Сан-Джильянна 2 недели

Аура, Мальта

16 - 29 июля
  • 16июля
    Сегодня
    +25°
    +36°
    Ясно и безоблачно
    ВремяПогодаТемператураВлажностьДавлениеВетер, м/сВероятность осадков
    02:00Ясно и безоблачно+26°C91 %757 мм2.3 м/с1 %
    05:00Ясно и безоблачно+26°C95 %757 мм2.7 м/с1 %
    08:00Ясно и безоблачно+30°C85 %757 мм2.4 м/с1 %
    11:00Ясно и безоблачно+34°C58 %758 мм3.3 м/с1 %
    14:00Ясно и безоблачно+36°C54 %758 мм4.3 м/с1 %
    17:00Ясно и безоблачно+35°C51 %757 мм4.0 м/с1 %
    20:00Ясно и безоблачно+30°C74 %757 мм4.0 м/с1 %
    23:00Ясно и безоблачно+28°C79 %758 мм3.4 м/с1 %
  • 17июля
    Среда
    +25°
    +36°
    Ясно и безоблачно
    ВремяПогодаТемператураВлажностьДавлениеВетер, м/сВероятность осадков
    02:00Ясно и безоблачно+26°C83 %757 мм3.0 м/с1 %
    05:00Ясно и безоблачно+26°C90 %757 мм2.4 м/с1 %
    08:00Ясно и безоблачно+30°C83 %758 мм2.0 м/с1 %
    11:00Ясно и безоблачно+34°C52 %758 мм4.1 м/с1 %
    14:00Ясно и безоблачно+35°C43 %758 мм4.0 м/с1 %
    17:00Ясно и безоблачно+34°C47 %758 мм3.7 м/с1 %
    20:00Ясно и безоблачно+30°C62 %758 мм3.0 м/с1 %
    23:00Ясно и безоблачно+28°C75 %758 мм1.7 м/с1 %
  • 18июля
    Четверг
    +26°
    +36°
    Ясно и безоблачно
    ВремяПогодаТемператураВлажностьДавлениеВетер, м/сВероятность осадков
    02:00Ясно и безоблачно+27°C83 %758 мм1.4 м/с1 %
    05:00Ясно и безоблачно+26°C92 %758 мм1.8 м/с1 %
    08:00Ясно и безоблачно+30°C78 %759 мм2.1 м/с1 %
    11:00Ясно и безоблачно+34°C50 %760 мм3.3 м/с1 %
    14:00Ясно и безоблачно+36°C46 %759 мм3.4 м/с1 %
    17:00Ясно и безоблачно+35°C48 %759 мм3.1 м/с1 %
    20:00Ясно и безоблачно+31°C61 %759 мм3.1 м/с1 %
    23:00Ясно и безоблачно+29°C77 %759 мм3.0 м/с1 %
  • 19июля
    Пятница
    +25°
    +36°
    Ясно и безоблачно
    ВремяПогодаТемператураВлажностьДавлениеВетер, м/сВероятность осадков
    02:00Ясно и безоблачно+27°C74 %758 мм2.4 м/с2 %
    05:00Ясно и безоблачно+26°C86 %758 мм2.4 м/с2 %
    08:00Ясно и безоблачно+30°C85 %758 мм2.0 м/с2 %
    11:00Ясно и безоблачно+34°C54 %759 мм3.4 м/с2 %
    14:00Ясно и безоблачно+36°C43 %758 мм3.1 м/с2 %
    17:00Ясно и безоблачно+35°C51 %757 мм3.3 м/с2 %
    20:00Ясно и безоблачно+31°C60 %757 мм3.2 м/с2 %
    23:00Ясно и безоблачно+29°C71 %757 мм2.1 м/с2 %
  • 20июля
    Суббота
    +24°
    +36°
    Ясно и безоблачно
    ВремяПогодаТемператураВлажностьДавлениеВетер, м/сВероятность осадков
    02:00Ясно и безоблачно+27°C86 %756 мм2.8 м/с2 %
    05:00Ясно и безоблачно+25°C94 %756 мм2.1 м/с2 %
    08:00Ясно и безоблачно+30°C84 %756 мм2.1 м/с2 %
    11:00Ясно и безоблачно+33°C55 %757 мм3.1 м/с2 %
    14:00Ясно и безоблачно+35°C53 %756 мм3.7 м/с2 %
    17:00Ясно и безоблачно+34°C53 %755 мм4.3 м/с2 %
    20:00Ясно и безоблачно+30°C55 %755 мм3.2 м/с2 %
    23:00Ясно и безоблачно+28°C73 %755 мм3.0 м/с2 %
Мы используем cookies
Соглашаюсь